sensor_id;sensor_type;location;lat;lon;timestamp;P1;durP1;ratioP1;P2;durP2;ratioP2
16845;SDS011;8539;53.188;8.696;2023-05-19T00:02:05;13.00;;;5.65;;
16845;SDS011;8539;53.188;8.696;2023-05-19T00:04:33;6.53;;;4.60;;
16845;SDS011;8539;53.188;8.696;2023-05-19T00:06:59;7.30;;;4.22;;
16845;SDS011;8539;53.188;8.696;2023-05-19T00:09:27;11.65;;;4.47;;
16845;SDS011;8539;53.188;8.696;2023-05-19T00:11:53;16.10;;;5.28;;
16845;SDS011;8539;53.188;8.696;2023-05-19T00:14:21;11.32;;;5.15;;
16845;SDS011;8539;53.188;8.696;2023-05-19T00:16:47;11.98;;;4.85;;
16845;SDS011;8539;53.188;8.696;2023-05-19T00:19:13;9.10;;;4.55;;
16845;SDS011;8539;53.188;8.696;2023-05-19T00:21:41;7.88;;;4.97;;
16845;SDS011;8539;53.188;8.696;2023-05-19T00:24:07;9.43;;;5.13;;
16845;SDS011;8539;53.188;8.696;2023-05-19T00:26:33;14.15;;;5.13;;
16845;SDS011;8539;53.188;8.696;2023-05-19T00:28:59;7.15;;;4.57;;
16845;SDS011;8539;53.188;8.696;2023-05-19T00:31:25;16.20;;;5.18;;
16845;SDS011;8539;53.188;8.696;2023-05-19T00:33:51;10.05;;;5.53;;
16845;SDS011;8539;53.188;8.696;2023-05-19T00:36:17;10.43;;;4.38;;
16845;SDS011;8539;53.188;8.696;2023-05-19T00:38:44;9.82;;;4.80;;
16845;SDS011;8539;53.188;8.696;2023-05-19T00:41:10;12.45;;;5.38;;
16845;SDS011;8539;53.188;8.696;2023-05-19T00:43:36;11.95;;;5.10;;
16845;SDS011;8539;53.188;8.696;2023-05-19T00:46:02;12.05;;;5.03;;
16845;SDS011;8539;53.188;8.696;2023-05-19T00:48:29;8.57;;;4.70;;
16845;SDS011;8539;53.188;8.696;2023-05-19T00:50:55;14.38;;;5.20;;
16845;SDS011;8539;53.188;8.696;2023-05-19T00:53:26;11.88;;;4.43;;
16845;SDS011;8539;53.188;8.696;2023-05-19T00:55:53;6.82;;;5.10;;
16845;SDS011;8539;53.188;8.696;2023-05-19T00:58:20;9.00;;;4.82;;
16845;SDS011;8539;53.188;8.696;2023-05-19T01:00:48;7.53;;;4.57;;
16845;SDS011;8539;53.188;8.696;2023-05-19T01:03:15;13.73;;;4.85;;
16845;SDS011;8539;53.188;8.696;2023-05-19T01:05:44;11.63;;;5.20;;
16845;SDS011;8539;53.188;8.696;2023-05-19T01:08:12;10.30;;;5.20;;
16845;SDS011;8539;53.188;8.696;2023-05-19T01:10:38;7.35;;;4.88;;
16845;SDS011;8539;53.188;8.696;2023-05-19T01:13:04;10.77;;;4.32;;
16845;SDS011;8539;53.188;8.696;2023-05-19T01:16:17;7.70;;;5.53;;
16845;SDS011;8539;53.188;8.696;2023-05-19T01:18:23;6.82;;;4.57;;
16845;SDS011;8539;53.188;8.696;2023-05-19T01:21:42;12.38;;;4.93;;
16845;SDS011;8539;53.188;8.696;2023-05-19T01:32:10;7.18;;;4.25;;
16845;SDS011;8539;53.188;8.696;2023-05-19T01:34:42;13.15;;;4.93;;
16845;SDS011;8539;53.188;8.696;2023-05-19T01:37:10;13.30;;;5.97;;
16845;SDS011;8539;53.188;8.696;2023-05-19T01:39:38;9.73;;;4.60;;
16845;SDS011;8539;53.188;8.696;2023-05-19T01:42:06;9.93;;;5.60;;
16845;SDS011;8539;53.188;8.696;2023-05-19T01:44:32;8.82;;;5.32;;
16845;SDS011;8539;53.188;8.696;2023-05-19T01:46:59;9.23;;;5.40;;
16845;SDS011;8539;53.188;8.696;2023-05-19T01:49:25;8.10;;;5.18;;
16845;SDS011;8539;53.188;8.696;2023-05-19T01:51:52;8.23;;;4.80;;
16845;SDS011;8539;53.188;8.696;2023-05-19T01:54:18;8.82;;;4.90;;
16845;SDS011;8539;53.188;8.696;2023-05-19T01:59:25;13.93;;;5.13;;
16845;SDS011;8539;53.188;8.696;2023-05-19T02:02:15;9.48;;;4.93;;
16845;SDS011;8539;53.188;8.696;2023-05-19T02:04:59;10.23;;;4.85;;
16845;SDS011;8539;53.188;8.696;2023-05-19T02:10:04;5.95;;;4.68;;
16845;SDS011;8539;53.188;8.696;2023-05-19T02:12:35;12.25;;;5.10;;
16845;SDS011;8539;53.188;8.696;2023-05-19T02:15:06;7.70;;;5.22;;
16845;SDS011;8539;53.188;8.696;2023-05-19T02:17:43;7.95;;;4.20;;
16845;SDS011;8539;53.188;8.696;2023-05-19T02:20:15;5.88;;;4.75;;
16845;SDS011;8539;53.188;8.696;2023-05-19T02:22:42;6.35;;;4.15;;
16845;SDS011;8539;53.188;8.696;2023-05-19T02:25:08;7.50;;;5.18;;
16845;SDS011;8539;53.188;8.696;2023-05-19T02:27:35;10.55;;;4.68;;
16845;SDS011;8539;53.188;8.696;2023-05-19T02:30:03;10.93;;;4.13;;
16845;SDS011;8539;53.188;8.696;2023-05-19T02:32:30;6.90;;;4.70;;
16845;SDS011;8539;53.188;8.696;2023-05-19T02:34:57;8.27;;;4.85;;
16845;SDS011;8539;53.188;8.696;2023-05-19T02:37:23;8.05;;;5.28;;
16845;SDS011;8539;53.188;8.696;2023-05-19T02:39:49;7.38;;;5.45;;
16845;SDS011;8539;53.188;8.696;2023-05-19T02:42:15;6.93;;;4.93;;
16845;SDS011;8539;53.188;8.696;2023-05-19T02:44:44;9.80;;;5.18;;
16845;SDS011;8539;53.188;8.696;2023-05-19T02:47:11;12.23;;;4.88;;
16845;SDS011;8539;53.188;8.696;2023-05-19T02:49:37;6.85;;;4.68;;
16845;SDS011;8539;53.188;8.696;2023-05-19T02:52:04;13.07;;;4.95;;
16845;SDS011;8539;53.188;8.696;2023-05-19T02:54:31;8.98;;;5.38;;
16845;SDS011;8539;53.188;8.696;2023-05-19T02:56:58;11.50;;;4.75;;
16845;SDS011;8539;53.188;8.696;2023-05-19T02:59:25;6.53;;;4.75;;
16845;SDS011;8539;53.188;8.696;2023-05-19T03:01:53;10.20;;;5.18;;
16845;SDS011;8539;53.188;8.696;2023-05-19T03:04:21;7.53;;;4.90;;
16845;SDS011;8539;53.188;8.696;2023-05-19T03:06:47;9.10;;;4.78;;
16845;SDS011;8539;53.188;8.696;2023-05-19T03:09:12;8.25;;;4.60;;
16845;SDS011;8539;53.188;8.696;2023-05-19T03:11:39;11.00;;;4.20;;
16845;SDS011;8539;53.188;8.696;2023-05-19T03:14:05;7.50;;;4.97;;
16845;SDS011;8539;53.188;8.696;2023-05-19T03:16:33;10.32;;;5.18;;
16845;SDS011;8539;53.188;8.696;2023-05-19T03:19:00;14.40;;;4.95;;
16845;SDS011;8539;53.188;8.696;2023-05-19T03:21:26;7.90;;;4.57;;
16845;SDS011;8539;53.188;8.696;2023-05-19T03:23:52;16.33;;;5.57;;
16845;SDS011;8539;53.188;8.696;2023-05-19T03:26:19;8.63;;;4.60;;
16845;SDS011;8539;53.188;8.696;2023-05-19T03:28:47;11.85;;;4.97;;
16845;SDS011;8539;53.188;8.696;2023-05-19T03:31:13;15.32;;;4.40;;
16845;SDS011;8539;53.188;8.696;2023-05-19T03:33:40;8.30;;;4.70;;
16845;SDS011;8539;53.188;8.696;2023-05-19T03:36:07;14.13;;;5.25;;
16845;SDS011;8539;53.188;8.696;2023-05-19T03:38:34;10.32;;;4.72;;
16845;SDS011;8539;53.188;8.696;2023-05-19T03:41:00;7.18;;;4.75;;
16845;SDS011;8539;53.188;8.696;2023-05-19T03:43:26;11.18;;;4.03;;
16845;SDS011;8539;53.188;8.696;2023-05-19T03:45:52;7.45;;;4.88;;
16845;SDS011;8539;53.188;8.696;2023-05-19T03:48:18;11.90;;;4.07;;
16845;SDS011;8539;53.188;8.696;2023-05-19T03:50:44;10.35;;;4.50;;
16845;SDS011;8539;53.188;8.696;2023-05-19T03:53:10;6.38;;;4.80;;
16845;SDS011;8539;53.188;8.696;2023-05-19T03:55:36;7.35;;;4.47;;
16845;SDS011;8539;53.188;8.696;2023-05-19T03:58:03;9.23;;;3.97;;
16845;SDS011;8539;53.188;8.696;2023-05-19T04:00:29;9.75;;;4.82;;
16845;SDS011;8539;53.188;8.696;2023-05-19T04:02:55;9.20;;;4.45;;
16845;SDS011;8539;53.188;8.696;2023-05-19T04:05:21;10.10;;;4.60;;
16845;SDS011;8539;53.188;8.696;2023-05-19T04:07:47;16.17;;;4.55;;
16845;SDS011;8539;53.188;8.696;2023-05-19T04:10:13;11.32;;;3.80;;
16845;SDS011;8539;53.188;8.696;2023-05-19T04:12:39;10.88;;;4.82;;
16845;SDS011;8539;53.188;8.696;2023-05-19T04:15:07;11.57;;;5.05;;
16845;SDS011;8539;53.188;8.696;2023-05-19T04:17:35;16.65;;;5.85;;
16845;SDS011;8539;53.188;8.696;2023-05-19T04:20:02;11.77;;;4.03;;
16845;SDS011;8539;53.188;8.696;2023-05-19T04:22:30;8.55;;;4.35;;
16845;SDS011;8539;53.188;8.696;2023-05-19T04:24:56;11.10;;;5.15;;
16845;SDS011;8539;53.188;8.696;2023-05-19T04:27:23;10.98;;;5.20;;
16845;SDS011;8539;53.188;8.696;2023-05-19T04:29:50;7.38;;;4.78;;
16845;SDS011;8539;53.188;8.696;2023-05-19T04:32:17;11.23;;;4.00;;
16845;SDS011;8539;53.188;8.696;2023-05-19T04:34:43;10.35;;;4.70;;
16845;SDS011;8539;53.188;8.696;2023-05-19T04:37:13;7.88;;;4.80;;
16845;SDS011;8539;53.188;8.696;2023-05-19T04:39:44;10.73;;;4.70;;
16845;SDS011;8539;53.188;8.696;2023-05-19T04:42:11;12.57;;;5.30;;
16845;SDS011;8539;53.188;8.696;2023-05-19T04:44:37;15.00;;;4.97;;
16845;SDS011;8539;53.188;8.696;2023-05-19T04:47:08;10.45;;;5.80;;
16845;SDS011;8539;53.188;8.696;2023-05-19T04:49:34;12.23;;;6.18;;
16845;SDS011;8539;53.188;8.696;2023-05-19T04:52:08;14.90;;;5.32;;
16845;SDS011;8539;53.188;8.696;2023-05-19T04:54:36;10.70;;;5.22;;
16845;SDS011;8539;53.188;8.696;2023-05-19T04:57:03;6.65;;;4.72;;
16845;SDS011;8539;53.188;8.696;2023-05-19T04:59:30;8.68;;;5.05;;
16845;SDS011;8539;53.188;8.696;2023-05-19T05:01:56;10.25;;;5.82;;
16845;SDS011;8539;53.188;8.696;2023-05-19T05:04:22;7.55;;;5.25;;
16845;SDS011;8539;53.188;8.696;2023-05-19T05:06:48;7.70;;;5.03;;
16845;SDS011;8539;53.188;8.696;2023-05-19T05:09:15;11.05;;;5.80;;
16845;SDS011;8539;53.188;8.696;2023-05-19T05:11:42;12.68;;;4.50;;
16845;SDS011;8539;53.188;8.696;2023-05-19T05:14:12;8.77;;;4.45;;
16845;SDS011;8539;53.188;8.696;2023-05-19T05:16:38;10.02;;;5.68;;
16845;SDS011;8539;53.188;8.696;2023-05-19T05:19:05;9.68;;;6.18;;
16845;SDS011;8539;53.188;8.696;2023-05-19T05:21:31;9.02;;;5.22;;
16845;SDS011;8539;53.188;8.696;2023-05-19T05:23:58;9.75;;;5.60;;
16845;SDS011;8539;53.188;8.696;2023-05-19T05:26:29;14.85;;;5.22;;
16845;SDS011;8539;53.188;8.696;2023-05-19T05:28:57;10.48;;;5.18;;
16845;SDS011;8539;53.188;8.696;2023-05-19T05:31:23;6.60;;;5.00;;
16845;SDS011;8539;53.188;8.696;2023-05-19T05:33:50;10.93;;;4.65;;
16845;SDS011;8539;53.188;8.696;2023-05-19T05:36:16;8.50;;;4.30;;
16845;SDS011;8539;53.188;8.696;2023-05-19T05:38:42;10.40;;;4.95;;
16845;SDS011;8539;53.188;8.696;2023-05-19T05:41:08;11.45;;;4.38;;
16845;SDS011;8539;53.188;8.696;2023-05-19T05:43:34;8.13;;;4.10;;
16845;SDS011;8539;53.188;8.696;2023-05-19T05:46:01;9.30;;;6.15;;
16845;SDS011;8539;53.188;8.696;2023-05-19T05:48:27;14.90;;;5.38;;
16845;SDS011;8539;53.188;8.696;2023-05-19T05:50:53;11.50;;;5.22;;
16845;SDS011;8539;53.188;8.696;2023-05-19T05:53:23;11.57;;;4.70;;
16845;SDS011;8539;53.188;8.696;2023-05-19T05:55:51;9.18;;;4.25;;
16845;SDS011;8539;53.188;8.696;2023-05-19T05:58:18;8.07;;;4.35;;
16845;SDS011;8539;53.188;8.696;2023-05-19T06:00:45;9.20;;;4.22;;
16845;SDS011;8539;53.188;8.696;2023-05-19T06:03:13;8.50;;;4.13;;
16845;SDS011;8539;53.188;8.696;2023-05-19T06:05:41;8.05;;;4.80;;
16845;SDS011;8539;53.188;8.696;2023-05-19T06:08:07;12.10;;;4.95;;
16845;SDS011;8539;53.188;8.696;2023-05-19T06:10:33;9.90;;;4.43;;
16845;SDS011;8539;53.188;8.696;2023-05-19T06:13:01;10.55;;;4.25;;
16845;SDS011;8539;53.188;8.696;2023-05-19T06:15:27;11.93;;;4.13;;
16845;SDS011;8539;53.188;8.696;2023-05-19T06:17:53;7.43;;;3.83;;
16845;SDS011;8539;53.188;8.696;2023-05-19T06:20:19;9.10;;;3.78;;
16845;SDS011;8539;53.188;8.696;2023-05-19T06:22:46;12.95;;;4.05;;
16845;SDS011;8539;53.188;8.696;2023-05-19T06:25:12;7.45;;;3.75;;
16845;SDS011;8539;53.188;8.696;2023-05-19T06:27:38;5.10;;;3.10;;
16845;SDS011;8539;53.188;8.696;2023-05-19T06:30:05;11.35;;;3.78;;
16845;SDS011;8539;53.188;8.696;2023-05-19T06:32:32;12.98;;;3.55;;
16845;SDS011;8539;53.188;8.696;2023-05-19T06:34:58;7.15;;;3.25;;
16845;SDS011;8539;53.188;8.696;2023-05-19T06:37:24;12.40;;;4.18;;
16845;SDS011;8539;53.188;8.696;2023-05-19T06:39:51;10.80;;;3.65;;
16845;SDS011;8539;53.188;8.696;2023-05-19T06:42:18;7.55;;;3.28;;
16845;SDS011;8539;53.188;8.696;2023-05-19T06:44:48;10.98;;;3.38;;
16845;SDS011;8539;53.188;8.696;2023-05-19T06:47:15;10.35;;;3.28;;
16845;SDS011;8539;53.188;8.696;2023-05-19T06:49:41;5.10;;;3.38;;
16845;SDS011;8539;53.188;8.696;2023-05-19T06:52:11;6.30;;;3.42;;
16845;SDS011;8539;53.188;8.696;2023-05-19T06:54:37;9.85;;;3.97;;
16845;SDS011;8539;53.188;8.696;2023-05-19T06:57:03;9.50;;;4.07;;
16845;SDS011;8539;53.188;8.696;2023-05-19T06:59:29;10.30;;;3.25;;
16845;SDS011;8539;53.188;8.696;2023-05-19T07:01:55;10.93;;;4.35;;
16845;SDS011;8539;53.188;8.696;2023-05-19T07:04:22;7.95;;;3.60;;
16845;SDS011;8539;53.188;8.696;2023-05-19T07:06:48;11.40;;;4.05;;
16845;SDS011;8539;53.188;8.696;2023-05-19T07:09:14;6.72;;;3.28;;
16845;SDS011;8539;53.188;8.696;2023-05-19T07:11:41;6.93;;;3.42;;
16845;SDS011;8539;53.188;8.696;2023-05-19T07:14:07;7.03;;;3.20;;
16845;SDS011;8539;53.188;8.696;2023-05-19T07:16:33;11.43;;;4.28;;
16845;SDS011;8539;53.188;8.696;2023-05-19T07:18:59;11.32;;;3.45;;
16845;SDS011;8539;53.188;8.696;2023-05-19T07:21:25;9.77;;;4.30;;
16845;SDS011;8539;53.188;8.696;2023-05-19T07:23:51;10.90;;;4.03;;
16845;SDS011;8539;53.188;8.696;2023-05-19T07:26:17;7.97;;;3.83;;
16845;SDS011;8539;53.188;8.696;2023-05-19T07:28:44;9.30;;;3.85;;
16845;SDS011;8539;53.188;8.696;2023-05-19T07:31:10;11.00;;;3.55;;
16845;SDS011;8539;53.188;8.696;2023-05-19T07:33:36;8.40;;;3.55;;
16845;SDS011;8539;53.188;8.696;2023-05-19T07:36:02;9.45;;;4.10;;
16845;SDS011;8539;53.188;8.696;2023-05-19T07:38:29;10.23;;;3.75;;
16845;SDS011;8539;53.188;8.696;2023-05-19T07:40:59;8.45;;;3.45;;
16845;SDS011;8539;53.188;8.696;2023-05-19T07:43:25;10.32;;;3.67;;
16845;SDS011;8539;53.188;8.696;2023-05-19T07:45:51;8.70;;;3.92;;
16845;SDS011;8539;53.188;8.696;2023-05-19T07:48:18;8.35;;;3.80;;
16845;SDS011;8539;53.188;8.696;2023-05-19T07:50:47;8.70;;;4.78;;
16845;SDS011;8539;53.188;8.696;2023-05-19T07:53:13;8.27;;;3.90;;
16845;SDS011;8539;53.188;8.696;2023-05-19T07:55:40;7.20;;;3.85;;
16845;SDS011;8539;53.188;8.696;2023-05-19T07:58:06;7.55;;;4.05;;
16845;SDS011;8539;53.188;8.696;2023-05-19T08:00:32;8.88;;;4.18;;
16845;SDS011;8539;53.188;8.696;2023-05-19T08:02:58;7.93;;;4.05;;
16845;SDS011;8539;53.188;8.696;2023-05-19T08:05:26;6.57;;;3.70;;
16845;SDS011;8539;53.188;8.696;2023-05-19T08:07:52;7.30;;;3.83;;
16845;SDS011;8539;53.188;8.696;2023-05-19T08:10:18;10.77;;;4.05;;
16845;SDS011;8539;53.188;8.696;2023-05-19T08:12:44;8.77;;;4.00;;
16845;SDS011;8539;53.188;8.696;2023-05-19T08:15:10;8.15;;;4.90;;
16845;SDS011;8539;53.188;8.696;2023-05-19T08:17:36;10.55;;;4.95;;
16845;SDS011;8539;53.188;8.696;2023-05-19T08:20:03;6.90;;;4.18;;
16845;SDS011;8539;53.188;8.696;2023-05-19T08:22:32;10.63;;;3.60;;
16845;SDS011;8539;53.188;8.696;2023-05-19T08:24:58;6.68;;;3.35;;
16845;SDS011;8539;53.188;8.696;2023-05-19T08:27:24;6.60;;;3.72;;
16845;SDS011;8539;53.188;8.696;2023-05-19T08:29:50;6.18;;;3.78;;
16845;SDS011;8539;53.188;8.696;2023-05-19T08:32:16;8.02;;;3.38;;
16845;SDS011;8539;53.188;8.696;2023-05-19T08:34:42;12.38;;;4.05;;
16845;SDS011;8539;53.188;8.696;2023-05-19T08:37:08;7.93;;;3.92;;
16845;SDS011;8539;53.188;8.696;2023-05-19T08:39:35;8.80;;;3.67;;
16845;SDS011;8539;53.188;8.696;2023-05-19T08:42:01;6.72;;;3.17;;
16845;SDS011;8539;53.188;8.696;2023-05-19T08:44:27;7.50;;;3.33;;
16845;SDS011;8539;53.188;8.696;2023-05-19T08:46:55;6.43;;;3.67;;
16845;SDS011;8539;53.188;8.696;2023-05-19T08:49:28;9.98;;;3.50;;
16845;SDS011;8539;53.188;8.696;2023-05-19T08:54:40;6.25;;;3.35;;
16845;SDS011;8539;53.188;8.696;2023-05-19T08:57:11;9.18;;;3.60;;
16845;SDS011;8539;53.188;8.696;2023-05-19T08:59:38;5.93;;;2.78;;
16845;SDS011;8539;53.188;8.696;2023-05-19T09:02:05;8.63;;;3.15;;
16845;SDS011;8539;53.188;8.696;2023-05-19T09:04:33;8.98;;;2.83;;
16845;SDS011;8539;53.188;8.696;2023-05-19T09:06:59;8.10;;;3.42;;
16845;SDS011;8539;53.188;8.696;2023-05-19T09:09:28;7.80;;;3.40;;
16845;SDS011;8539;53.188;8.696;2023-05-19T09:11:55;10.15;;;3.35;;
16845;SDS011;8539;53.188;8.696;2023-05-19T09:14:21;7.82;;;3.58;;
16845;SDS011;8539;53.188;8.696;2023-05-19T09:16:48;6.50;;;3.25;;
16845;SDS011;8539;53.188;8.696;2023-05-19T09:19:18;7.78;;;3.53;;
16845;SDS011;8539;53.188;8.696;2023-05-19T09:21:56;8.68;;;2.70;;
16845;SDS011;8539;53.188;8.696;2023-05-19T09:24:29;6.32;;;3.00;;
16845;SDS011;8539;53.188;8.696;2023-05-19T09:30:08;5.80;;;2.78;;
16845;SDS011;8539;53.188;8.696;2023-05-19T09:32:37;7.63;;;2.88;;
16845;SDS011;8539;53.188;8.696;2023-05-19T09:35:03;7.88;;;2.63;;
16845;SDS011;8539;53.188;8.696;2023-05-19T09:37:30;4.05;;;2.40;;
16845;SDS011;8539;53.188;8.696;2023-05-19T09:39:57;7.70;;;2.40;;
16845;SDS011;8539;53.188;8.696;2023-05-19T09:42:25;8.13;;;2.25;;
16845;SDS011;8539;53.188;8.696;2023-05-19T09:44:59;9.52;;;2.47;;
16845;SDS011;8539;53.188;8.696;2023-05-19T09:47:32;5.43;;;2.22;;
16845;SDS011;8539;53.188;8.696;2023-05-19T09:50:10;6.10;;;2.13;;
16845;SDS011;8539;53.188;8.696;2023-05-19T09:52:41;3.88;;;2.20;;
16845;SDS011;8539;53.188;8.696;2023-05-19T09:55:09;6.72;;;2.10;;
16845;SDS011;8539;53.188;8.696;2023-05-19T09:57:37;7.45;;;2.55;;
16845;SDS011;8539;53.188;8.696;2023-05-19T10:00:08;3.72;;;1.98;;
16845;SDS011;8539;53.188;8.696;2023-05-19T10:02:44;4.70;;;1.77;;
16845;SDS011;8539;53.188;8.696;2023-05-19T10:05:12;4.13;;;2.17;;
16845;SDS011;8539;53.188;8.696;2023-05-19T10:07:51;2.42;;;1.38;;
16845;SDS011;8539;53.188;8.696;2023-05-19T10:10:19;4.90;;;1.95;;
16845;SDS011;8539;53.188;8.696;2023-05-19T10:12:47;4.25;;;1.75;;
16845;SDS011;8539;53.188;8.696;2023-05-19T10:15:16;4.32;;;1.80;;
16845;SDS011;8539;53.188;8.696;2023-05-19T10:17:44;3.85;;;1.52;;
16845;SDS011;8539;53.188;8.696;2023-05-19T10:20:14;10.25;;;1.98;;
16845;SDS011;8539;53.188;8.696;2023-05-19T10:22:42;4.82;;;2.50;;
16845;SDS011;8539;53.188;8.696;2023-05-19T10:25:10;7.93;;;1.88;;
16845;SDS011;8539;53.188;8.696;2023-05-19T10:27:53;5.75;;;1.75;;
16845;SDS011;8539;53.188;8.696;2023-05-19T10:30:27;5.00;;;2.08;;
16845;SDS011;8539;53.188;8.696;2023-05-19T10:32:58;3.65;;;1.60;;
16845;SDS011;8539;53.188;8.696;2023-05-19T10:38:52;4.65;;;1.60;;
16845;SDS011;8539;53.188;8.696;2023-05-19T10:46:43;4.95;;;1.52;;
16845;SDS011;8539;53.188;8.696;2023-05-19T10:49:10;7.07;;;1.92;;
16845;SDS011;8539;53.188;8.696;2023-05-19T10:51:47;4.10;;;1.77;;
16845;SDS011;8539;53.188;8.696;2023-05-19T10:54:13;7.03;;;2.00;;
16845;SDS011;8539;53.188;8.696;2023-05-19T10:56:43;4.97;;;2.58;;
16845;SDS011;8539;53.188;8.696;2023-05-19T10:59:29;6.70;;;3.00;;
16845;SDS011;8539;53.188;8.696;2023-05-19T11:02:05;4.10;;;1.85;;
16845;SDS011;8539;53.188;8.696;2023-05-19T11:04:44;6.95;;;2.20;;
16845;SDS011;8539;53.188;8.696;2023-05-19T11:07:18;5.65;;;1.83;;
16845;SDS011;8539;53.188;8.696;2023-05-19T11:09:49;4.25;;;1.80;;
16845;SDS011;8539;53.188;8.696;2023-05-19T11:12:22;7.00;;;1.90;;
16845;SDS011;8539;53.188;8.696;2023-05-19T11:14:51;5.18;;;2.80;;
16845;SDS011;8539;53.188;8.696;2023-05-19T11:17:19;6.45;;;2.38;;
16845;SDS011;8539;53.188;8.696;2023-05-19T11:19:52;7.50;;;2.25;;
16845;SDS011;8539;53.188;8.696;2023-05-19T11:22:23;3.90;;;1.45;;
16845;SDS011;8539;53.188;8.696;2023-05-19T11:24:50;3.42;;;1.50;;
16845;SDS011;8539;53.188;8.696;2023-05-19T11:27:26;6.22;;;2.17;;
16845;SDS011;8539;53.188;8.696;2023-05-19T11:30:16;4.35;;;2.03;;
16845;SDS011;8539;53.188;8.696;2023-05-19T11:32:43;6.45;;;1.92;;
16845;SDS011;8539;53.188;8.696;2023-05-19T11:35:12;7.93;;;1.90;;
16845;SDS011;8539;53.188;8.696;2023-05-19T11:37:39;4.90;;;2.00;;
16845;SDS011;8539;53.188;8.696;2023-05-19T11:40:07;5.97;;;1.80;;
16845;SDS011;8539;53.188;8.696;2023-05-19T11:42:34;3.30;;;2.08;;
16845;SDS011;8539;53.188;8.696;2023-05-19T11:45:01;5.32;;;1.77;;
16845;SDS011;8539;53.188;8.696;2023-05-19T11:47:29;3.75;;;1.48;;
16845;SDS011;8539;53.188;8.696;2023-05-19T11:49:57;4.50;;;1.77;;
16845;SDS011;8539;53.188;8.696;2023-05-19T11:52:23;5.20;;;1.77;;
16845;SDS011;8539;53.188;8.696;2023-05-19T11:54:50;5.68;;;1.80;;
16845;SDS011;8539;53.188;8.696;2023-05-19T11:57:16;5.93;;;2.15;;
16845;SDS011;8539;53.188;8.696;2023-05-19T11:59:43;5.25;;;1.98;;
16845;SDS011;8539;53.188;8.696;2023-05-19T12:02:20;4.78;;;1.40;;
16845;SDS011;8539;53.188;8.696;2023-05-19T12:04:47;6.65;;;1.48;;
16845;SDS011;8539;53.188;8.696;2023-05-19T12:07:21;5.38;;;2.15;;
16845;SDS011;8539;53.188;8.696;2023-05-19T12:09:48;6.50;;;1.63;;
16845;SDS011;8539;53.188;8.696;2023-05-19T12:12:15;5.15;;;2.15;;
16845;SDS011;8539;53.188;8.696;2023-05-19T12:14:43;6.57;;;1.65;;
16845;SDS011;8539;53.188;8.696;2023-05-19T12:17:11;6.40;;;1.70;;
16845;SDS011;8539;53.188;8.696;2023-05-19T12:19:38;2.60;;;1.50;;
16845;SDS011;8539;53.188;8.696;2023-05-19T12:22:08;8.02;;;1.92;;
16845;SDS011;8539;53.188;8.696;2023-05-19T12:24:35;6.88;;;1.88;;
16845;SDS011;8539;53.188;8.696;2023-05-19T12:27:09;4.88;;;1.95;;
16845;SDS011;8539;53.188;8.696;2023-05-19T12:29:39;4.35;;;1.63;;
16845;SDS011;8539;53.188;8.696;2023-05-19T12:32:06;4.57;;;1.90;;
16845;SDS011;8539;53.188;8.696;2023-05-19T12:34:36;7.10;;;1.95;;
16845;SDS011;8539;53.188;8.696;2023-05-19T12:37:03;3.40;;;1.88;;
16845;SDS011;8539;53.188;8.696;2023-05-19T12:39:30;4.88;;;1.70;;
16845;SDS011;8539;53.188;8.696;2023-05-19T12:42:02;4.45;;;2.15;;
16845;SDS011;8539;53.188;8.696;2023-05-19T12:44:42;3.47;;;1.65;;
16845;SDS011;8539;53.188;8.696;2023-05-19T12:47:14;1.75;;;1.23;;
16845;SDS011;8539;53.188;8.696;2023-05-19T12:49:54;7.53;;;1.45;;
16845;SDS011;8539;53.188;8.696;2023-05-19T12:52:22;3.65;;;1.92;;
16845;SDS011;8539;53.188;8.696;2023-05-19T12:54:49;2.65;;;1.27;;
16845;SDS011;8539;53.188;8.696;2023-05-19T12:57:22;6.72;;;1.70;;
16845;SDS011;8539;53.188;8.696;2023-05-19T12:59:50;5.88;;;1.83;;
16845;SDS011;8539;53.188;8.696;2023-05-19T13:02:17;5.07;;;2.10;;
16845;SDS011;8539;53.188;8.696;2023-05-19T13:04:44;4.32;;;1.83;;
16845;SDS011;8539;53.188;8.696;2023-05-19T13:07:10;6.22;;;1.60;;
16845;SDS011;8539;53.188;8.696;2023-05-19T13:09:37;3.17;;;1.40;;
16845;SDS011;8539;53.188;8.696;2023-05-19T13:12:03;6.85;;;1.70;;
16845;SDS011;8539;53.188;8.696;2023-05-19T13:14:31;3.78;;;1.60;;
16845;SDS011;8539;53.188;8.696;2023-05-19T13:16:57;5.05;;;1.60;;
16845;SDS011;8539;53.188;8.696;2023-05-19T13:19:23;5.65;;;2.00;;
16845;SDS011;8539;53.188;8.696;2023-05-19T13:21:50;11.70;;;2.03;;
16845;SDS011;8539;53.188;8.696;2023-05-19T13:24:18;5.53;;;1.65;;
16845;SDS011;8539;53.188;8.696;2023-05-19T13:26:44;2.67;;;1.80;;
16845;SDS011;8539;53.188;8.696;2023-05-19T13:29:13;5.93;;;1.85;;
16845;SDS011;8539;53.188;8.696;2023-05-19T13:31:40;4.00;;;1.50;;
16845;SDS011;8539;53.188;8.696;2023-05-19T13:34:06;2.22;;;1.60;;
16845;SDS011;8539;53.188;8.696;2023-05-19T13:36:33;3.95;;;2.33;;
16845;SDS011;8539;53.188;8.696;2023-05-19T13:38:59;3.22;;;1.65;;
16845;SDS011;8539;53.188;8.696;2023-05-19T13:41:26;5.40;;;1.83;;
16845;SDS011;8539;53.188;8.696;2023-05-19T13:43:57;4.80;;;2.50;;
16845;SDS011;8539;53.188;8.696;2023-05-19T13:46:24;3.65;;;1.85;;
16845;SDS011;8539;53.188;8.696;2023-05-19T13:48:50;5.50;;;1.30;;
16845;SDS011;8539;53.188;8.696;2023-05-19T13:51:16;5.20;;;2.20;;
16845;SDS011;8539;53.188;8.696;2023-05-19T13:53:43;3.25;;;1.58;;
16845;SDS011;8539;53.188;8.696;2023-05-19T13:56:10;4.32;;;1.73;;
16845;SDS011;8539;53.188;8.696;2023-05-19T13:58:38;4.70;;;1.92;;
16845;SDS011;8539;53.188;8.696;2023-05-19T14:01:06;1.75;;;1.40;;
16845;SDS011;8539;53.188;8.696;2023-05-19T14:03:33;3.78;;;1.90;;
16845;SDS011;8539;53.188;8.696;2023-05-19T14:05:59;9.20;;;1.65;;
16845;SDS011;8539;53.188;8.696;2023-05-19T14:08:26;5.57;;;1.70;;
16845;SDS011;8539;53.188;8.696;2023-05-19T14:10:53;6.25;;;1.63;;
16845;SDS011;8539;53.188;8.696;2023-05-19T14:13:19;6.18;;;2.17;;
16845;SDS011;8539;53.188;8.696;2023-05-19T14:15:46;9.52;;;1.80;;
16845;SDS011;8539;53.188;8.696;2023-05-19T14:18:13;5.20;;;2.40;;
16845;SDS011;8539;53.188;8.696;2023-05-19T14:20:40;3.88;;;1.70;;
16845;SDS011;8539;53.188;8.696;2023-05-19T14:23:06;5.47;;;1.52;;
16845;SDS011;8539;53.188;8.696;2023-05-19T14:25:33;3.20;;;1.75;;
16845;SDS011;8539;53.188;8.696;2023-05-19T14:27:59;5.70;;;1.98;;
16845;SDS011;8539;53.188;8.696;2023-05-19T14:30:25;5.35;;;2.20;;
16845;SDS011;8539;53.188;8.696;2023-05-19T14:32:51;3.55;;;1.70;;
16845;SDS011;8539;53.188;8.696;2023-05-19T14:35:17;3.80;;;1.65;;
16845;SDS011;8539;53.188;8.696;2023-05-19T14:37:43;4.07;;;2.00;;
16845;SDS011;8539;53.188;8.696;2023-05-19T14:40:10;4.97;;;1.77;;
16845;SDS011;8539;53.188;8.696;2023-05-19T14:42:36;3.78;;;1.58;;
16845;SDS011;8539;53.188;8.696;2023-05-19T14:45:02;5.47;;;1.70;;
16845;SDS011;8539;53.188;8.696;2023-05-19T14:47:29;2.88;;;1.60;;
16845;SDS011;8539;53.188;8.696;2023-05-19T14:49:55;2.83;;;1.40;;
16845;SDS011;8539;53.188;8.696;2023-05-19T14:52:21;3.58;;;1.58;;
16845;SDS011;8539;53.188;8.696;2023-05-19T14:54:47;3.95;;;1.67;;
16845;SDS011;8539;53.188;8.696;2023-05-19T14:57:13;6.20;;;2.03;;
16845;SDS011;8539;53.188;8.696;2023-05-19T14:59:39;4.03;;;2.17;;
16845;SDS011;8539;53.188;8.696;2023-05-19T15:02:05;7.28;;;2.05;;
16845;SDS011;8539;53.188;8.696;2023-05-19T15:04:31;6.20;;;1.48;;
16845;SDS011;8539;53.188;8.696;2023-05-19T15:06:58;5.55;;;2.45;;
16845;SDS011;8539;53.188;8.696;2023-05-19T15:09:23;4.00;;;1.52;;
16845;SDS011;8539;53.188;8.696;2023-05-19T15:11:49;15.10;;;2.25;;
16845;SDS011;8539;53.188;8.696;2023-05-19T15:14:15;3.85;;;1.75;;
16845;SDS011;8539;53.188;8.696;2023-05-19T15:16:42;5.22;;;1.52;;
16845;SDS011;8539;53.188;8.696;2023-05-19T15:19:08;5.72;;;2.13;;
16845;SDS011;8539;53.188;8.696;2023-05-19T15:21:34;7.30;;;1.95;;
16845;SDS011;8539;53.188;8.696;2023-05-19T15:24:00;3.40;;;1.75;;
16845;SDS011;8539;53.188;8.696;2023-05-19T15:26:26;1.70;;;1.30;;
16845;SDS011;8539;53.188;8.696;2023-05-19T15:28:52;15.45;;;3.25;;
16845;SDS011;8539;53.188;8.696;2023-05-19T15:31:18;5.57;;;1.65;;